createdAt,value
2022-10-19T00:01:51.989Z,95.77
2022-10-19T00:04:19.060Z,95.73
2022-10-19T00:06:47.023Z,95.73
2022-10-19T00:09:15.661Z,95.63
2022-10-19T00:11:44.903Z,95.68
2022-10-19T00:14:14.773Z,95.52
2022-10-19T00:16:42.971Z,95.57
2022-10-19T00:19:14.423Z,95.68
2022-10-19T00:21:41.652Z,94.85
2022-10-19T00:24:08.519Z,94.99
2022-10-19T00:26:35.408Z,95.35
2022-10-19T00:29:02.627Z,95.54
2022-10-19T00:31:29.367Z,95.83
2022-10-19T00:33:57.806Z,95.95
2022-10-19T00:36:36.081Z,95.79
2022-10-19T00:39:04.685Z,95.83
2022-10-19T00:41:33.877Z,95.81
2022-10-19T00:44:03.302Z,95.54
2022-10-19T00:46:33.224Z,95.59
2022-10-19T00:49:10.911Z,95.70
2022-10-19T00:51:41.274Z,95.76
2022-10-19T00:54:09.270Z,95.59
2022-10-19T00:56:37.663Z,95.11
2022-10-19T00:59:05.951Z,95.13
2022-10-19T01:01:34.129Z,95.29
2022-10-19T01:04:02.054Z,95.25
2022-10-19T01:06:28.945Z,95.16
2022-10-19T01:08:55.579Z,95.15
2022-10-19T01:11:54.740Z,95.25
2022-10-19T01:14:27.227Z,95.48
2022-10-19T01:17:26.701Z,95.28
2022-10-19T01:20:28.216Z,95.31
2022-10-19T01:23:29.034Z,95.00
2022-10-19T01:26:31.042Z,95.42
2022-10-19T01:29:06.704Z,95.48
2022-10-19T01:31:35.969Z,95.24
2022-10-19T01:34:21.029Z,95.06
2022-10-19T01:37:15.550Z,94.99
2022-10-19T01:39:52.428Z,95.46
2022-10-19T01:42:49.699Z,95.64
2022-10-19T01:45:27.830Z,96.11
2022-10-19T01:48:28.919Z,95.72
2022-10-19T01:51:09.660Z,95.88
2022-10-19T01:53:41.963Z,95.67
2022-10-19T01:56:09.435Z,95.66
2022-10-19T01:58:38.875Z,95.85
2022-10-19T02:03:57.795Z,96.03
2022-10-19T02:06:24.528Z,96.23
2022-10-19T02:08:53.143Z,96.13
2022-10-19T02:11:22.043Z,95.92
2022-10-19T02:13:54.538Z,95.98
2022-10-19T02:16:27.599Z,95.77
2022-10-19T02:18:56.493Z,96.04
2022-10-19T02:21:23.859Z,95.79
2022-10-19T02:23:53.400Z,95.78
2022-10-19T02:26:21.852Z,95.61
2022-10-19T02:28:48.978Z,95.31
2022-10-19T02:31:15.952Z,95.28
2022-10-19T02:33:42.829Z,95.21
2022-10-19T02:36:09.520Z,95.43
2022-10-19T02:38:36.504Z,95.04
2022-10-19T02:41:06.423Z,95.24
2022-10-19T02:43:37.177Z,95.37
2022-10-19T02:46:16.391Z,95.56
2022-10-19T02:48:44.375Z,95.91
2022-10-19T02:51:30.800Z,95.76
2022-10-19T02:53:59.047Z,95.91
2022-10-19T02:56:28.213Z,95.62
2022-10-19T02:58:55.219Z,95.72
2022-10-19T03:01:21.838Z,96.02
2022-10-19T03:03:48.506Z,96.23
2022-10-19T03:06:15.208Z,95.87
2022-10-19T03:08:42.251Z,95.70
2022-10-19T03:11:09.115Z,95.62
2022-10-19T03:13:35.764Z,95.75
2022-10-19T03:16:10.790Z,95.68
2022-10-19T03:18:37.451Z,95.85
2022-10-19T03:21:09.514Z,95.83
2022-10-19T03:23:36.718Z,95.69
2022-10-19T03:26:05.619Z,95.57
2022-10-19T03:28:34.646Z,95.77
2022-10-19T03:31:01.742Z,96.12
2022-10-19T03:33:28.476Z,95.68
2022-10-19T03:36:24.619Z,95.56
2022-10-19T03:38:52.316Z,95.57
2022-10-19T03:41:20.682Z,95.54
2022-10-19T03:43:47.712Z,95.60
2022-10-19T03:46:15.053Z,95.52
2022-10-19T03:48:42.377Z,95.67
2022-10-19T03:51:13.349Z,95.82
2022-10-19T03:53:40.791Z,96.10
2022-10-19T03:56:11.560Z,96.27
2022-10-19T03:58:40.389Z,95.82
2022-10-19T04:01:15.211Z,96.27
2022-10-19T04:03:42.339Z,96.44
2022-10-19T04:06:16.913Z,96.28
2022-10-19T04:08:48.836Z,95.79
2022-10-19T04:11:19.774Z,95.62
2022-10-19T04:13:49.618Z,95.44
2022-10-19T04:16:16.437Z,95.59
2022-10-19T04:18:43.376Z,95.41
2022-10-19T04:21:21.178Z,95.85
2022-10-19T04:23:47.839Z,95.68
2022-10-19T04:26:14.652Z,95.54
2022-10-19T04:28:41.385Z,96.15
2022-10-19T04:31:08.185Z,96.61
2022-10-19T04:33:35.302Z,96.76
2022-10-19T04:36:07.380Z,96.96
2022-10-19T04:38:35.188Z,97.14
2022-10-19T04:41:10.098Z,97.12
2022-10-19T04:43:37.695Z,97.03
2022-10-19T04:46:10.590Z,96.96
2022-10-19T04:48:38.310Z,96.16
2022-10-19T04:51:05.353Z,96.21
2022-10-19T04:53:33.567Z,96.21
2022-10-19T04:56:04.504Z,96.24
2022-10-19T04:58:31.529Z,96.21
2022-10-19T05:00:58.277Z,95.97
2022-10-19T05:03:25.058Z,96.05
2022-10-19T05:05:51.622Z,95.85
2022-10-19T05:08:18.486Z,95.65
2022-10-19T05:10:47.656Z,95.40
2022-10-19T05:13:15.033Z,95.51
2022-10-19T05:15:42.079Z,95.42
2022-10-19T05:18:09.276Z,95.52
2022-10-19T05:20:35.951Z,95.43
2022-10-19T05:23:06.302Z,95.32
2022-10-19T05:25:34.083Z,95.37
2022-10-19T05:28:00.881Z,95.31
2022-10-19T05:30:27.562Z,95.67
2022-10-19T05:32:54.264Z,95.55
2022-10-19T05:35:22.697Z,95.28
2022-10-19T05:37:54.487Z,95.60
2022-10-19T05:40:21.293Z,95.65
2022-10-19T05:42:47.956Z,95.61
2022-10-19T05:45:14.634Z,95.55
2022-10-19T05:47:41.298Z,95.51
2022-10-19T05:50:08.363Z,95.42
2022-10-19T05:52:36.455Z,95.57
2022-10-19T05:55:03.592Z,95.58
2022-10-19T05:57:33.215Z,95.58
2022-10-19T06:00:00.114Z,95.59
2022-10-19T06:02:26.818Z,95.37
2022-10-19T06:04:53.511Z,95.95
2022-10-19T06:07:20.099Z,96.18
2022-10-19T06:09:47.909Z,96.21
2022-10-19T06:12:16.226Z,96.05
2022-10-19T06:14:43.381Z,96.18
2022-10-19T06:17:10.799Z,95.57
2022-10-19T06:19:37.535Z,95.03
2022-10-19T06:22:04.131Z,95.30
2022-10-19T06:24:30.829Z,95.12
2022-10-19T06:26:57.452Z,94.72
2022-10-19T06:44:00.793Z,91.78
2022-10-19T06:46:27.485Z,91.50
2022-10-19T06:48:56.398Z,90.82
2022-10-19T06:51:25.533Z,89.98
2022-10-19T06:53:56.607Z,89.84
2022-10-19T06:56:24.872Z,89.74
2022-10-19T06:58:52.328Z,89.71
2022-10-19T07:01:19.097Z,90.43
2022-10-19T07:03:45.841Z,89.12
2022-10-19T07:06:13.442Z,89.19
2022-10-19T07:08:41.805Z,88.25
2022-10-19T07:11:10.697Z,88.03
2022-10-19T07:13:38.191Z,86.65
2022-10-19T07:16:15.900Z,86.53
2022-10-19T07:18:46.628Z,86.14
2022-10-19T07:21:16.178Z,86.77
2022-10-19T07:23:45.129Z,85.66
2022-10-19T07:26:15.633Z,86.43
2022-10-19T07:28:47.442Z,84.99
2022-10-19T07:31:18.002Z,84.01
2022-10-19T07:33:45.139Z,83.21
2022-10-19T07:36:13.668Z,82.48
2022-10-19T07:38:40.962Z,81.62
2022-10-19T07:41:14.172Z,82.53
2022-10-19T07:43:42.564Z,81.49
2022-10-19T07:46:12.804Z,80.25
2022-10-19T07:48:39.733Z,80.23
2022-10-19T07:51:08.200Z,79.87
2022-10-19T07:53:36.031Z,80.58
2022-10-19T07:56:06.203Z,81.00
2022-10-19T07:58:32.999Z,80.37
2022-10-19T08:01:04.388Z,81.37
2022-10-19T08:04:31.283Z,79.07
2022-10-19T08:06:19.225Z,78.99
2022-10-19T08:08:47.109Z,78.51
2022-10-19T08:11:15.276Z,77.01
2022-10-19T08:13:42.493Z,77.70
2022-10-19T08:16:30.077Z,74.41
2022-10-19T08:18:57.929Z,73.88
2022-10-19T08:21:26.100Z,76.90
2022-10-19T08:23:52.772Z,74.88
2022-10-19T08:26:19.585Z,75.68
2022-10-19T08:28:49.249Z,75.46
2022-10-19T08:31:21.097Z,72.18
2022-10-19T08:33:50.454Z,70.92
2022-10-19T08:36:17.391Z,72.68
2022-10-19T08:38:45.460Z,72.88
2022-10-19T08:44:59.871Z,75.14
2022-10-19T08:47:38.749Z,70.19
2022-10-19T08:50:26.658Z,71.17
2022-10-19T08:53:03.827Z,69.54
2022-10-19T08:56:04.916Z,68.67
2022-10-19T08:58:36.540Z,69.07
2022-10-19T09:01:09.483Z,71.25
2022-10-19T09:04:01.841Z,67.51
2022-10-19T09:06:28.666Z,67.99
2022-10-19T09:08:57.407Z,67.98
2022-10-19T09:11:29.549Z,71.81
2022-10-19T09:14:06.258Z,67.27
2022-10-19T09:16:35.099Z,67.52
2022-10-19T09:19:03.146Z,66.02
2022-10-19T09:21:46.105Z,66.78
2022-10-19T09:24:29.978Z,68.82
2022-10-19T09:27:00.026Z,65.42
2022-10-19T09:29:50.463Z,65.91
2022-10-19T09:32:24.503Z,64.34
2022-10-19T09:34:58.911Z,63.67
2022-10-19T09:37:26.889Z,63.12
2022-10-19T09:39:55.669Z,64.28
2022-10-19T09:42:26.482Z,63.97
2022-10-19T09:44:55.141Z,63.60
2022-10-19T09:47:42.561Z,63.25
2022-10-19T09:50:18.002Z,63.56
2022-10-19T09:52:51.466Z,61.93
2022-10-19T09:55:40.935Z,60.74
2022-10-19T09:58:13.686Z,59.93
2022-10-19T10:00:46.810Z,62.44
2022-10-19T10:03:30.922Z,62.03
2022-10-19T10:06:24.091Z,59.57
2022-10-19T10:08:58.182Z,59.58
2022-10-19T10:11:28.497Z,58.67
2022-10-19T10:13:56.255Z,59.47
2022-10-19T10:16:29.384Z,58.74
2022-10-19T10:19:03.983Z,60.26
2022-10-19T10:21:34.986Z,58.75
2022-10-19T10:24:06.849Z,59.52
2022-10-19T10:26:40.215Z,57.35
2022-10-19T10:29:53.843Z,55.81
2022-10-19T10:32:21.520Z,60.07
2022-10-19T10:35:01.317Z,57.05
2022-10-19T10:37:44.640Z,55.77
2022-10-19T10:40:27.970Z,57.24
2022-10-19T10:42:57.958Z,54.63
2022-10-19T10:45:40.289Z,54.67
2022-10-19T10:48:29.087Z,57.64
2022-10-19T10:50:57.338Z,54.39
2022-10-19T10:53:38.147Z,56.61
2022-10-19T10:56:07.176Z,53.87
2022-10-19T10:59:14.409Z,53.64
2022-10-19T11:01:47.803Z,54.15
2022-10-19T11:04:24.693Z,52.75
2022-10-19T11:06:59.336Z,53.45
2022-10-19T11:09:38.640Z,52.83
2022-10-19T11:12:10.303Z,53.19
2022-10-19T11:14:51.364Z,55.40
2022-10-19T11:17:40.041Z,58.12
2022-10-19T11:20:15.058Z,56.52
2022-10-19T11:23:02.285Z,59.30
2022-10-19T11:25:28.764Z,58.97
2022-10-19T11:28:29.378Z,57.57
2022-10-19T11:31:15.831Z,57.65
2022-10-19T11:34:27.068Z,57.23
2022-10-19T11:37:06.146Z,53.57
2022-10-19T11:40:06.794Z,57.46
2022-10-19T11:42:57.203Z,52.17
2022-10-19T11:45:41.191Z,51.35
2022-10-19T11:48:40.414Z,55.35
2022-10-19T11:51:22.285Z,53.36
2022-10-19T11:53:48.936Z,55.93
2022-10-19T11:56:39.098Z,51.80
2022-10-19T11:59:20.622Z,53.82
2022-10-19T12:01:50.357Z,57.05
2022-10-19T12:04:44.981Z,56.04
2022-10-19T12:07:27.928Z,54.96
2022-10-19T12:10:17.087Z,50.87
2022-10-19T12:12:47.866Z,50.88
2022-10-19T12:15:53.968Z,47.64
2022-10-19T12:18:41.918Z,47.08
2022-10-19T12:21:31.226Z,46.45
2022-10-19T12:23:59.390Z,48.31
2022-10-19T12:26:30.567Z,48.03
2022-10-19T12:29:00.681Z,47.55
2022-10-19T12:31:28.938Z,48.91
2022-10-19T12:33:58.709Z,48.81
2022-10-19T12:37:01.159Z,49.16
2022-10-19T12:45:18.866Z,49.38
2022-10-19T12:48:13.379Z,47.73
2022-10-19T12:53:49.365Z,47.66
2022-10-19T12:56:15.941Z,48.50
2022-10-19T12:58:47.669Z,48.35
2022-10-19T13:01:23.344Z,49.79
2022-10-19T13:04:07.924Z,49.72
2022-10-19T13:06:37.930Z,48.70
2022-10-19T13:09:09.672Z,49.55
2022-10-19T13:11:38.449Z,50.00
2022-10-19T13:14:20.280Z,49.87
2022-10-19T13:17:03.572Z,49.60
2022-10-19T13:19:30.217Z,50.54
2022-10-19T13:22:27.677Z,51.70
2022-10-19T13:25:32.500Z,52.11
2022-10-19T13:28:09.417Z,52.42
2022-10-19T13:30:36.099Z,51.75
2022-10-19T13:33:29.589Z,52.67
2022-10-19T13:35:59.019Z,53.26
2022-10-19T13:41:27.932Z,55.55
2022-10-19T13:44:03.535Z,54.85
2022-10-19T13:46:30.141Z,55.73
2022-10-19T13:49:02.632Z,54.26
2022-10-19T13:51:56.245Z,54.74
2022-10-19T13:54:49.447Z,57.46
2022-10-19T13:57:41.439Z,58.47
2022-10-19T14:00:20.517Z,58.07
2022-10-19T14:03:26.665Z,59.26
2022-10-19T14:05:56.668Z,60.89
2022-10-19T14:08:56.744Z,59.76
2022-10-19T14:11:36.699Z,61.10
2022-10-19T14:14:09.450Z,61.19
2022-10-19T14:16:46.087Z,60.92
2022-10-19T14:19:14.740Z,60.56
2022-10-19T14:21:41.448Z,62.61
2022-10-19T14:24:39.665Z,62.09
2022-10-19T14:27:07.945Z,62.33
2022-10-19T14:29:48.276Z,62.66
2022-10-19T14:32:15.647Z,63.51
2022-10-19T14:34:43.968Z,62.61
2022-10-19T14:37:18.376Z,63.06
2022-10-19T14:40:03.627Z,63.93
2022-10-19T14:42:45.477Z,64.02
2022-10-19T14:45:27.581Z,64.27
2022-10-19T14:47:55.632Z,65.07
2022-10-19T14:50:28.088Z,64.43
2022-10-19T14:53:03.486Z,65.37
2022-10-19T14:55:37.827Z,64.77
2022-10-19T14:58:09.645Z,64.08
2022-10-19T15:00:36.485Z,63.85
2022-10-19T15:03:08.194Z,62.30
2022-10-19T15:05:37.899Z,62.55
2022-10-19T15:08:17.908Z,62.68
2022-10-19T15:10:47.124Z,62.80
2022-10-19T15:13:29.049Z,63.66
2022-10-19T15:15:56.000Z,63.83
2022-10-19T15:18:47.592Z,63.25
2022-10-19T15:21:18.783Z,62.57
2022-10-19T15:23:50.672Z,63.90
2022-10-19T15:26:26.050Z,63.91
2022-10-19T15:28:54.074Z,64.47
2022-10-19T15:31:26.101Z,64.27
2022-10-19T15:33:56.018Z,63.02
2022-10-19T15:36:23.863Z,61.84
2022-10-19T15:39:17.688Z,64.44
2022-10-19T15:41:47.287Z,66.08
2022-10-19T15:44:43.537Z,65.89
2022-10-19T15:47:15.988Z,65.84
2022-10-19T15:49:42.642Z,65.81
2022-10-19T15:52:15.972Z,66.20
2022-10-19T15:54:43.151Z,67.42
2022-10-19T15:57:42.408Z,67.53
2022-10-19T16:00:14.967Z,68.06
2022-10-19T16:02:41.692Z,68.11
2022-10-19T16:05:08.870Z,68.75
2022-10-19T16:07:38.761Z,68.98
2022-10-19T16:10:07.213Z,69.04
2022-10-19T16:12:33.928Z,69.69
2022-10-19T16:15:00.684Z,68.90
2022-10-19T16:17:27.563Z,69.26
2022-10-19T16:19:54.265Z,70.66
2022-10-19T16:22:21.139Z,70.45
2022-10-19T16:24:47.784Z,71.50
2022-10-19T16:27:16.346Z,71.01
2022-10-19T16:29:44.487Z,71.86
2022-10-19T16:32:11.405Z,72.02
2022-10-19T16:34:38.254Z,72.15
2022-10-19T16:37:06.938Z,72.41
2022-10-19T16:39:34.504Z,72.21
2022-10-19T16:42:01.420Z,72.25
2022-10-19T16:44:28.117Z,72.23
2022-10-19T16:46:57.048Z,72.82
2022-10-19T16:49:23.941Z,72.68
2022-10-19T16:51:53.363Z,73.05
2022-10-19T16:54:23.315Z,73.33
2022-10-19T16:56:49.997Z,73.15
2022-10-19T16:59:18.522Z,73.72
2022-10-19T17:01:46.272Z,73.66
2022-10-19T17:04:13.500Z,74.06
2022-10-19T17:06:40.886Z,74.54
2022-10-19T17:09:40.869Z,74.71
2022-10-19T17:11:54.870Z,74.31
2022-10-19T17:14:21.471Z,74.96
2022-10-19T17:16:48.169Z,75.38
2022-10-19T17:19:14.791Z,75.53
2022-10-19T17:21:42.556Z,75.70
2022-10-19T17:24:18.465Z,75.76
2022-10-19T17:26:49.064Z,76.35
2022-10-19T17:29:15.677Z,76.63
2022-10-19T17:31:42.719Z,77.18
2022-10-19T17:34:10.335Z,77.16
2022-10-19T17:39:29.109Z,77.58
2022-10-19T17:42:01.829Z,77.10
2022-10-19T17:44:30.620Z,77.28
2022-10-19T17:46:57.765Z,77.78
2022-10-19T17:49:24.424Z,78.23
2022-10-19T17:51:53.320Z,78.05
2022-10-19T17:58:40.397Z,79.11
2022-10-19T18:01:08.223Z,78.99
2022-10-19T18:03:35.477Z,78.99
2022-10-19T18:06:09.727Z,78.59
2022-10-19T18:08:40.005Z,78.59
2022-10-19T18:11:12.554Z,78.40
2022-10-19T18:13:39.944Z,78.36
2022-10-19T18:16:09.494Z,78.57
2022-10-19T18:18:38.182Z,78.59
2022-10-19T18:21:12.075Z,78.26
2022-10-19T18:23:38.799Z,78.14
2022-10-19T18:26:10.668Z,78.21
2022-10-19T18:28:38.275Z,78.63
2022-10-19T18:31:18.071Z,78.54
2022-10-19T18:33:44.894Z,78.85
2022-10-19T18:36:11.598Z,78.80
2022-10-19T18:38:39.278Z,78.74
2022-10-19T18:41:08.649Z,79.10
2022-10-19T18:51:41.837Z,79.84
2022-10-19T18:54:08.445Z,79.84
2022-10-19T18:56:36.663Z,80.09
2022-10-19T19:09:46.108Z,80.78
2022-10-19T19:12:16.188Z,81.02
2022-10-19T19:14:44.100Z,80.78
2022-10-19T19:17:10.635Z,81.26
2022-10-19T19:19:37.286Z,81.60
2022-10-19T19:22:08.613Z,81.93
2022-10-19T19:24:35.792Z,82.02
2022-10-19T19:27:02.408Z,82.27
2022-10-19T19:29:32.240Z,82.38
2022-10-19T19:31:59.075Z,82.67
2022-10-19T19:34:25.823Z,82.68
2022-10-19T19:36:52.549Z,82.80
2022-10-19T19:39:20.858Z,82.60
2022-10-19T19:41:49.435Z,82.98
2022-10-19T19:44:17.716Z,83.04
2022-10-19T19:46:45.283Z,82.78
2022-10-19T19:49:14.241Z,83.18
2022-10-19T19:51:40.765Z,83.13
2022-10-19T19:54:07.639Z,83.13
2022-10-19T19:56:34.318Z,82.91
2022-10-19T19:59:03.884Z,83.18
2022-10-19T20:01:31.591Z,83.29
2022-10-19T20:03:59.238Z,83.04
2022-10-19T20:06:26.228Z,83.42
2022-10-19T20:08:53.462Z,82.99
2022-10-19T20:11:21.161Z,83.23
2022-10-19T20:13:47.835Z,83.38
2022-10-19T20:16:22.802Z,82.86
2022-10-19T20:18:55.725Z,82.63
2022-10-19T20:21:26.663Z,82.85
2022-10-19T20:23:53.358Z,83.16
2022-10-19T20:26:22.107Z,83.04
2022-10-19T20:28:52.401Z,83.36
2022-10-19T20:31:19.916Z,83.48
2022-10-19T20:33:47.961Z,83.63
2022-10-19T20:36:20.147Z,83.77
2022-10-19T20:38:50.163Z,83.83
2022-10-19T20:41:17.574Z,84.36
2022-10-19T20:43:45.279Z,84.34
2022-10-19T20:46:14.989Z,84.21
2022-10-19T20:48:46.425Z,84.36
2022-10-19T20:51:17.862Z,84.27
2022-10-19T20:53:48.830Z,84.27
2022-10-19T20:56:18.143Z,84.45
2022-10-19T20:58:45.438Z,84.79
2022-10-19T21:01:17.782Z,84.84
2022-10-19T21:03:52.836Z,85.05
2022-10-19T21:06:20.484Z,85.30
2022-10-19T21:08:50.222Z,85.38
2022-10-19T21:11:19.991Z,85.66
2022-10-19T21:13:47.651Z,85.65
2022-10-19T21:16:16.582Z,85.79
2022-10-19T21:18:44.663Z,86.18
2022-10-19T21:21:13.120Z,86.30
2022-10-19T21:23:39.661Z,86.54
2022-10-19T21:26:09.407Z,86.63
2022-10-19T21:28:39.221Z,86.66
2022-10-19T21:31:08.935Z,86.94
2022-10-19T21:33:35.999Z,87.04
2022-10-19T21:36:09.957Z,87.19
2022-10-19T21:38:37.915Z,87.18
2022-10-19T21:41:06.575Z,87.35
2022-10-19T21:43:35.328Z,87.36
2022-10-19T21:46:06.701Z,87.41
2022-10-19T21:48:35.269Z,87.50
2022-10-19T21:51:19.047Z,87.40
2022-10-19T21:53:46.869Z,87.43
2022-10-19T21:56:15.822Z,87.50
2022-10-19T21:58:47.075Z,87.62
2022-10-19T22:01:14.564Z,87.62
2022-10-19T22:03:41.200Z,87.84
2022-10-19T22:06:07.941Z,88.12
2022-10-19T22:08:37.873Z,88.22
2022-10-19T22:11:12.651Z,88.48
2022-10-19T22:13:39.294Z,88.66
2022-10-19T22:16:08.430Z,88.87
2022-10-19T22:18:36.387Z,89.14
2022-10-19T22:21:07.601Z,89.23
2022-10-19T22:23:34.280Z,89.64
2022-10-19T22:26:01.036Z,89.72
2022-10-19T22:28:28.113Z,89.86
2022-10-19T22:30:56.003Z,90.22
2022-10-19T22:33:23.169Z,90.46
2022-10-19T22:35:54.395Z,90.53
2022-10-19T22:38:23.911Z,90.80
2022-10-19T22:40:50.409Z,90.87
2022-10-19T22:43:17.016Z,91.02
2022-10-19T22:45:47.773Z,91.07
2022-10-19T22:48:15.349Z,91.18
2022-10-19T22:50:41.933Z,91.21
2022-10-19T22:53:08.651Z,91.28
2022-10-19T22:55:35.419Z,91.37
2022-10-19T22:58:02.242Z,91.40
2022-10-19T23:00:30.122Z,91.37
2022-10-19T23:02:56.674Z,91.40
2022-10-19T23:05:23.604Z,91.31
2022-10-19T23:07:50.113Z,91.20
2022-10-19T23:10:19.697Z,91.11
2022-10-19T23:12:53.355Z,90.72
2022-10-19T23:15:21.423Z,90.76
2022-10-19T23:17:51.113Z,90.44
2022-10-19T23:20:17.605Z,90.38
2022-10-19T23:22:44.134Z,90.25
2022-10-19T23:25:11.637Z,90.21
2022-10-19T23:27:38.401Z,90.00
2022-10-19T23:30:05.679Z,89.88
2022-10-19T23:32:32.357Z,89.68
2022-10-19T23:35:01.493Z,89.61
2022-10-19T23:37:36.953Z,89.61
2022-10-19T23:40:04.506Z,89.23
2022-10-19T23:42:31.054Z,89.20
2022-10-19T23:44:57.583Z,89.12
2022-10-19T23:47:24.414Z,89.24
2022-10-19T23:49:50.929Z,89.00
2022-10-19T23:52:18.626Z,89.00
2022-10-19T23:54:45.125Z,89.05
